sensor_id;sensor_type;location;lat;lon;timestamp;temperature;humidity
11532;DHT22;5822;51.000;5.874;2023-02-28T00:01:10;5.20;99.90
11532;DHT22;5822;51.000;5.874;2023-02-28T00:03:35;5.10;99.90
11532;DHT22;5822;51.000;5.874;2023-02-28T00:06:03;5.10;99.90
11532;DHT22;5822;51.000;5.874;2023-02-28T00:08:29;5.00;99.90
11532;DHT22;5822;51.000;5.874;2023-02-28T00:10:55;5.10;99.90
11532;DHT22;5822;51.000;5.874;2023-02-28T00:13:20;5.20;99.90
11532;DHT22;5822;51.000;5.874;2023-02-28T00:15:46;5.20;99.90
11532;DHT22;5822;51.000;5.874;2023-02-28T00:18:12;5.20;99.90
11532;DHT22;5822;51.000;5.874;2023-02-28T00:20:38;5.10;99.90
11532;DHT22;5822;51.000;5.874;2023-02-28T00:23:04;4.90;99.90
11532;DHT22;5822;51.000;5.874;2023-02-28T00:25:29;4.90;99.90
11532;DHT22;5822;51.000;5.874;2023-02-28T00:27:55;4.80;99.90
11532;DHT22;5822;51.000;5.874;2023-02-28T00:30:22;4.80;99.90
11532;DHT22;5822;51.000;5.874;2023-02-28T00:32:49;4.70;99.90
11532;DHT22;5822;51.000;5.874;2023-02-28T00:35:15;4.80;99.90
11532;DHT22;5822;51.000;5.874;2023-02-28T00:37:41;4.70;99.90
11532;DHT22;5822;51.000;5.874;2023-02-28T00:40:08;4.80;99.90
11532;DHT22;5822;51.000;5.874;2023-02-28T00:42:35;4.80;99.90
11532;DHT22;5822;51.000;5.874;2023-02-28T00:45:01;4.80;99.90
11532;DHT22;5822;51.000;5.874;2023-02-28T00:47:29;4.70;99.90
11532;DHT22;5822;51.000;5.874;2023-02-28T00:49:54;4.70;99.90
11532;DHT22;5822;51.000;5.874;2023-02-28T00:52:20;4.70;99.90
11532;DHT22;5822;51.000;5.874;2023-02-28T00:54:46;4.60;99.90
11532;DHT22;5822;51.000;5.874;2023-02-28T00:57:12;4.60;99.90
11532;DHT22;5822;51.000;5.874;2023-02-28T00:59:38;4.50;99.90
11532;DHT22;5822;51.000;5.874;2023-02-28T01:02:03;4.50;99.90
11532;DHT22;5822;51.000;5.874;2023-02-28T01:04:29;4.40;99.90
11532;DHT22;5822;51.000;5.874;2023-02-28T01:06:54;4.40;99.90
11532;DHT22;5822;51.000;5.874;2023-02-28T01:09:20;4.40;99.90
11532;DHT22;5822;51.000;5.874;2023-02-28T01:11:46;4.40;99.90
11532;DHT22;5822;51.000;5.874;2023-02-28T01:14:15;4.40;99.90
11532;DHT22;5822;51.000;5.874;2023-02-28T01:16:41;4.40;99.90
11532;DHT22;5822;51.000;5.874;2023-02-28T01:19:07;4.40;99.90
11532;DHT22;5822;51.000;5.874;2023-02-28T01:21:33;4.30;99.90
11532;DHT22;5822;51.000;5.874;2023-02-28T01:24:00;4.30;99.90
11532;DHT22;5822;51.000;5.874;2023-02-28T01:26:26;4.20;99.90
11532;DHT22;5822;51.000;5.874;2023-02-28T01:28:52;4.20;99.90
11532;DHT22;5822;51.000;5.874;2023-02-28T01:31:20;4.30;99.90
11532;DHT22;5822;51.000;5.874;2023-02-28T01:33:46;4.20;99.90
11532;DHT22;5822;51.000;5.874;2023-02-28T01:36:18;4.20;99.90
11532;DHT22;5822;51.000;5.874;2023-02-28T01:38:44;4.20;99.90
11532;DHT22;5822;51.000;5.874;2023-02-28T01:41:18;4.20;99.90
11532;DHT22;5822;51.000;5.874;2023-02-28T01:46:11;4.20;99.90
11532;DHT22;5822;51.000;5.874;2023-02-28T01:48:46;4.20;99.90
11532;DHT22;5822;51.000;5.874;2023-02-28T01:51:17;4.20;99.90
11532;DHT22;5822;51.000;5.874;2023-02-28T01:53:47;4.20;99.90
11532;DHT22;5822;51.000;5.874;2023-02-28T01:56:17;4.10;99.90
11532;DHT22;5822;51.000;5.874;2023-02-28T01:58:50;4.20;99.90
11532;DHT22;5822;51.000;5.874;2023-02-28T02:01:16;4.10;99.90
11532;DHT22;5822;51.000;5.874;2023-02-28T02:04:05;4.20;99.90
11532;DHT22;5822;51.000;5.874;2023-02-28T02:06:38;4.10;99.90
11532;DHT22;5822;51.000;5.874;2023-02-28T02:09:05;4.20;99.90
11532;DHT22;5822;51.000;5.874;2023-02-28T02:11:32;4.20;99.90
11532;DHT22;5822;51.000;5.874;2023-02-28T02:14:21;4.10;99.90
11532;DHT22;5822;51.000;5.874;2023-02-28T02:17:35;4.10;99.90
11532;DHT22;5822;51.000;5.874;2023-02-28T02:20:16;4.10;99.90
11532;DHT22;5822;51.000;5.874;2023-02-28T02:25:54;4.00;99.90
11532;DHT22;5822;51.000;5.874;2023-02-28T02:42:35;3.90;99.90
11532;DHT22;5822;51.000;5.874;2023-02-28T02:45:09;4.00;99.90
11532;DHT22;5822;51.000;5.874;2023-02-28T02:47:36;3.90;99.90
11532;DHT22;5822;51.000;5.874;2023-02-28T02:50:07;3.90;99.90
11532;DHT22;5822;51.000;5.874;2023-02-28T02:52:43;3.80;99.90
11532;DHT22;5822;51.000;5.874;2023-02-28T02:55:12;3.80;99.90
11532;DHT22;5822;51.000;5.874;2023-02-28T02:57:45;3.80;99.90
11532;DHT22;5822;51.000;5.874;2023-02-28T03:00:12;3.80;99.90
11532;DHT22;5822;51.000;5.874;2023-02-28T03:02:40;3.80;99.90
11532;DHT22;5822;51.000;5.874;2023-02-28T03:05:17;3.90;99.90
11532;DHT22;5822;51.000;5.874;2023-02-28T03:07:44;4.00;99.90
11532;DHT22;5822;51.000;5.874;2023-02-28T03:10:45;4.00;99.90
11532;DHT22;5822;51.000;5.874;2023-02-28T03:16:33;4.10;99.90
11532;DHT22;5822;51.000;5.874;2023-02-28T03:19:30;3.90;99.90
11532;DHT22;5822;51.000;5.874;2023-02-28T03:24:37;3.70;99.90
11532;DHT22;5822;51.000;5.874;2023-02-28T03:27:29;3.70;99.90
11532;DHT22;5822;51.000;5.874;2023-02-28T03:30:22;3.80;99.90
11532;DHT22;5822;51.000;5.874;2023-02-28T03:33:02;3.70;99.90
11532;DHT22;5822;51.000;5.874;2023-02-28T03:35:43;3.70;99.90
11532;DHT22;5822;51.000;5.874;2023-02-28T03:38:18;3.70;99.90
11532;DHT22;5822;51.000;5.874;2023-02-28T03:40:50;3.70;99.90
11532;DHT22;5822;51.000;5.874;2023-02-28T03:43:24;3.70;99.90
11532;DHT22;5822;51.000;5.874;2023-02-28T03:45:51;3.60;99.90
11532;DHT22;5822;51.000;5.874;2023-02-28T03:48:32;3.80;99.90
11532;DHT22;5822;51.000;5.874;2023-02-28T03:51:02;3.80;99.90
11532;DHT22;5822;51.000;5.874;2023-02-28T03:53:37;3.70;99.90
11532;DHT22;5822;51.000;5.874;2023-02-28T03:56:19;3.90;99.90
11532;DHT22;5822;51.000;5.874;2023-02-28T04:01:39;3.90;99.90
11532;DHT22;5822;51.000;5.874;2023-02-28T04:04:07;3.90;99.90
11532;DHT22;5822;51.000;5.874;2023-02-28T04:06:34;3.90;99.90
11532;DHT22;5822;51.000;5.874;2023-02-28T04:09:00;3.90;99.90
11532;DHT22;5822;51.000;5.874;2023-02-28T04:11:40;3.90;99.90
11532;DHT22;5822;51.000;5.874;2023-02-28T04:14:08;3.90;99.90
11532;DHT22;5822;51.000;5.874;2023-02-28T04:16:35;4.00;99.90
11532;DHT22;5822;51.000;5.874;2023-02-28T04:19:03;4.10;99.90
11532;DHT22;5822;51.000;5.874;2023-02-28T04:21:39;4.20;99.90
11532;DHT22;5822;51.000;5.874;2023-02-28T04:24:05;4.10;99.90
11532;DHT22;5822;51.000;5.874;2023-02-28T04:26:35;4.20;99.90
11532;DHT22;5822;51.000;5.874;2023-02-28T04:29:04;4.20;99.90
11532;DHT22;5822;51.000;5.874;2023-02-28T04:31:30;4.20;99.90
11532;DHT22;5822;51.000;5.874;2023-02-28T04:33:56;4.00;99.90
11532;DHT22;5822;51.000;5.874;2023-02-28T04:36:22;4.10;99.90
11532;DHT22;5822;51.000;5.874;2023-02-28T04:38:49;4.10;99.90
11532;DHT22;5822;51.000;5.874;2023-02-28T04:41:15;3.90;99.90
11532;DHT22;5822;51.000;5.874;2023-02-28T04:43:41;3.90;99.90
11532;DHT22;5822;51.000;5.874;2023-02-28T04:46:08;3.90;99.90
11532;DHT22;5822;51.000;5.874;2023-02-28T04:48:36;3.90;99.90
11532;DHT22;5822;51.000;5.874;2023-02-28T04:53:28;3.90;99.90
11532;DHT22;5822;51.000;5.874;2023-02-28T04:55:55;3.90;99.90
11532;DHT22;5822;51.000;5.874;2023-02-28T04:58:21;3.90;99.90
11532;DHT22;5822;51.000;5.874;2023-02-28T05:00:49;3.90;99.90
11532;DHT22;5822;51.000;5.874;2023-02-28T05:03:14;3.90;99.90
11532;DHT22;5822;51.000;5.874;2023-02-28T05:05:40;4.00;99.90
11532;DHT22;5822;51.000;5.874;2023-02-28T05:08:06;4.00;99.90
11532;DHT22;5822;51.000;5.874;2023-02-28T05:10:31;4.00;99.90
11532;DHT22;5822;51.000;5.874;2023-02-28T05:12:57;3.80;99.90
11532;DHT22;5822;51.000;5.874;2023-02-28T05:15:23;3.70;99.90
11532;DHT22;5822;51.000;5.874;2023-02-28T05:17:50;3.60;99.90
11532;DHT22;5822;51.000;5.874;2023-02-28T05:20:15;3.40;99.90
11532;DHT22;5822;51.000;5.874;2023-02-28T05:22:42;3.20;99.90
11532;DHT22;5822;51.000;5.874;2023-02-28T05:25:15;3.20;99.90
11532;DHT22;5822;51.000;5.874;2023-02-28T05:27:41;3.30;99.90
11532;DHT22;5822;51.000;5.874;2023-02-28T05:30:08;3.50;99.90
11532;DHT22;5822;51.000;5.874;2023-02-28T05:32:36;3.60;99.90
11532;DHT22;5822;51.000;5.874;2023-02-28T05:35:03;3.70;99.90
11532;DHT22;5822;51.000;5.874;2023-02-28T05:37:29;3.70;99.90
11532;DHT22;5822;51.000;5.874;2023-02-28T05:39:54;3.70;99.90
11532;DHT22;5822;51.000;5.874;2023-02-28T05:42:20;3.70;99.90
11532;DHT22;5822;51.000;5.874;2023-02-28T05:44:46;3.70;99.90
11532;DHT22;5822;51.000;5.874;2023-02-28T05:47:11;3.70;99.90
11532;DHT22;5822;51.000;5.874;2023-02-28T05:49:41;3.70;99.90
11532;DHT22;5822;51.000;5.874;2023-02-28T05:52:07;3.50;99.90
11532;DHT22;5822;51.000;5.874;2023-02-28T05:54:32;3.30;99.90
11532;DHT22;5822;51.000;5.874;2023-02-28T05:56:58;3.20;99.90
11532;DHT22;5822;51.000;5.874;2023-02-28T05:59:23;3.10;99.90
11532;DHT22;5822;51.000;5.874;2023-02-28T06:01:49;3.10;99.90
11532;DHT22;5822;51.000;5.874;2023-02-28T06:04:17;3.10;99.90
11532;DHT22;5822;51.000;5.874;2023-02-28T06:06:48;3.10;99.90
11532;DHT22;5822;51.000;5.874;2023-02-28T06:09:14;3.20;99.90
11532;DHT22;5822;51.000;5.874;2023-02-28T06:11:41;3.10;99.90
11532;DHT22;5822;51.000;5.874;2023-02-28T06:14:07;3.00;99.90
11532;DHT22;5822;51.000;5.874;2023-02-28T06:16:34;3.00;99.90
11532;DHT22;5822;51.000;5.874;2023-02-28T06:19:02;2.90;99.90
11532;DHT22;5822;51.000;5.874;2023-02-28T06:21:28;3.00;99.90
11532;DHT22;5822;51.000;5.874;2023-02-28T06:23:54;2.90;99.90
11532;DHT22;5822;51.000;5.874;2023-02-28T06:26:21;2.90;99.90
11532;DHT22;5822;51.000;5.874;2023-02-28T06:28:47;2.90;99.90
11532;DHT22;5822;51.000;5.874;2023-02-28T06:31:15;3.00;99.90
11532;DHT22;5822;51.000;5.874;2023-02-28T06:33:42;3.00;99.90
11532;DHT22;5822;51.000;5.874;2023-02-28T06:36:09;3.30;99.90
11532;DHT22;5822;51.000;5.874;2023-02-28T06:38:35;3.30;99.90
11532;DHT22;5822;51.000;5.874;2023-02-28T06:41:01;3.40;99.90
11532;DHT22;5822;51.000;5.874;2023-02-28T06:43:33;3.20;99.90
11532;DHT22;5822;51.000;5.874;2023-02-28T06:46:00;3.20;99.90
11532;DHT22;5822;51.000;5.874;2023-02-28T06:48:27;3.10;99.90
11532;DHT22;5822;51.000;5.874;2023-02-28T06:51:00;3.40;99.90
11532;DHT22;5822;51.000;5.874;2023-02-28T06:53:26;3.50;99.90
11532;DHT22;5822;51.000;5.874;2023-02-28T06:55:52;3.70;99.90
11532;DHT22;5822;51.000;5.874;2023-02-28T06:58:17;3.80;99.90
11532;DHT22;5822;51.000;5.874;2023-02-28T07:00:45;3.80;99.90
11532;DHT22;5822;51.000;5.874;2023-02-28T07:03:12;3.70;99.90
11532;DHT22;5822;51.000;5.874;2023-02-28T07:05:38;3.80;99.90
11532;DHT22;5822;51.000;5.874;2023-02-28T07:08:05;3.90;99.90
11532;DHT22;5822;51.000;5.874;2023-02-28T07:10:32;3.80;99.90
11532;DHT22;5822;51.000;5.874;2023-02-28T07:12:58;3.80;99.90
11532;DHT22;5822;51.000;5.874;2023-02-28T07:15:24;3.80;99.90
11532;DHT22;5822;51.000;5.874;2023-02-28T07:17:50;3.70;99.90
11532;DHT22;5822;51.000;5.874;2023-02-28T07:20:16;3.80;99.90
11532;DHT22;5822;51.000;5.874;2023-02-28T07:22:42;4.00;99.90
11532;DHT22;5822;51.000;5.874;2023-02-28T07:25:08;4.00;99.90
11532;DHT22;5822;51.000;5.874;2023-02-28T07:27:34;4.00;99.90
11532;DHT22;5822;51.000;5.874;2023-02-28T07:30:00;4.10;99.90
11532;DHT22;5822;51.000;5.874;2023-02-28T07:32:27;4.00;99.90
11532;DHT22;5822;51.000;5.874;2023-02-28T07:34:53;4.00;99.90
11532;DHT22;5822;51.000;5.874;2023-02-28T07:37:19;4.10;99.90
11532;DHT22;5822;51.000;5.874;2023-02-28T07:39:45;4.10;99.90
11532;DHT22;5822;51.000;5.874;2023-02-28T07:42:10;4.20;99.90
11532;DHT22;5822;51.000;5.874;2023-02-28T07:44:38;4.10;99.90
11532;DHT22;5822;51.000;5.874;2023-02-28T07:47:09;4.10;99.90
11532;DHT22;5822;51.000;5.874;2023-02-28T07:49:38;4.10;99.90
11532;DHT22;5822;51.000;5.874;2023-02-28T07:52:07;4.20;99.90
11532;DHT22;5822;51.000;5.874;2023-02-28T07:54:33;4.30;99.90
11532;DHT22;5822;51.000;5.874;2023-02-28T07:56:59;4.30;99.90
11532;DHT22;5822;51.000;5.874;2023-02-28T07:59:25;4.40;99.90
11532;DHT22;5822;51.000;5.874;2023-02-28T08:01:50;4.30;99.90
11532;DHT22;5822;51.000;5.874;2023-02-28T08:04:17;4.40;99.90
11532;DHT22;5822;51.000;5.874;2023-02-28T08:06:43;4.40;99.90
11532;DHT22;5822;51.000;5.874;2023-02-28T08:09:09;4.40;99.90
11532;DHT22;5822;51.000;5.874;2023-02-28T08:11:35;4.40;99.90
11532;DHT22;5822;51.000;5.874;2023-02-28T08:14:01;4.40;99.90
11532;DHT22;5822;51.000;5.874;2023-02-28T08:16:27;4.40;99.90
11532;DHT22;5822;51.000;5.874;2023-02-28T08:18:53;4.50;99.90
11532;DHT22;5822;51.000;5.874;2023-02-28T08:21:20;4.50;99.90
11532;DHT22;5822;51.000;5.874;2023-02-28T08:23:49;4.50;99.90
11532;DHT22;5822;51.000;5.874;2023-02-28T08:26:16;4.60;99.90
11532;DHT22;5822;51.000;5.874;2023-02-28T08:28:42;4.60;99.90
11532;DHT22;5822;51.000;5.874;2023-02-28T08:31:10;4.60;99.90
11532;DHT22;5822;51.000;5.874;2023-02-28T08:33:37;4.60;99.90
11532;DHT22;5822;51.000;5.874;2023-02-28T08:36:04;4.60;99.90
11532;DHT22;5822;51.000;5.874;2023-02-28T08:38:30;4.70;99.90
11532;DHT22;5822;51.000;5.874;2023-02-28T08:41:01;4.80;99.90
11532;DHT22;5822;51.000;5.874;2023-02-28T08:43:28;4.80;99.90
11532;DHT22;5822;51.000;5.874;2023-02-28T08:45:55;4.80;99.90
11532;DHT22;5822;51.000;5.874;2023-02-28T08:48:24;4.80;99.90
11532;DHT22;5822;51.000;5.874;2023-02-28T08:51:05;4.80;99.90
11532;DHT22;5822;51.000;5.874;2023-02-28T08:53:31;4.80;99.90
11532;DHT22;5822;51.000;5.874;2023-02-28T08:56:02;4.90;99.90
11532;DHT22;5822;51.000;5.874;2023-02-28T08:58:28;5.00;99.90
11532;DHT22;5822;51.000;5.874;2023-02-28T09:00:54;5.00;99.90
11532;DHT22;5822;51.000;5.874;2023-02-28T09:03:21;5.00;99.90
11532;DHT22;5822;51.000;5.874;2023-02-28T09:05:58;5.00;99.90
11532;DHT22;5822;51.000;5.874;2023-02-28T09:08:27;5.10;99.90
11532;DHT22;5822;51.000;5.874;2023-02-28T09:10:53;5.10;99.90
11532;DHT22;5822;51.000;5.874;2023-02-28T09:13:20;5.20;99.90
11532;DHT22;5822;51.000;5.874;2023-02-28T09:15:46;5.20;99.90
11532;DHT22;5822;51.000;5.874;2023-02-28T09:18:12;5.20;99.90
11532;DHT22;5822;51.000;5.874;2023-02-28T09:20:39;5.20;99.90
11532;DHT22;5822;51.000;5.874;2023-02-28T09:23:06;5.30;99.90
11532;DHT22;5822;51.000;5.874;2023-02-28T09:25:31;5.30;99.90
11532;DHT22;5822;51.000;5.874;2023-02-28T09:27:57;5.30;99.90
11532;DHT22;5822;51.000;5.874;2023-02-28T09:30:22;5.40;99.90
11532;DHT22;5822;51.000;5.874;2023-02-28T09:32:48;5.40;99.90
11532;DHT22;5822;51.000;5.874;2023-02-28T09:35:24;5.40;99.90
11532;DHT22;5822;51.000;5.874;2023-02-28T09:37:51;5.50;99.90
11532;DHT22;5822;51.000;5.874;2023-02-28T09:40:22;5.50;99.90
11532;DHT22;5822;51.000;5.874;2023-02-28T09:42:51;5.50;99.90
11532;DHT22;5822;51.000;5.874;2023-02-28T09:45:36;5.50;99.90
11532;DHT22;5822;51.000;5.874;2023-02-28T09:48:24;5.60;99.90
11532;DHT22;5822;51.000;5.874;2023-02-28T09:50:55;5.60;99.90
11532;DHT22;5822;51.000;5.874;2023-02-28T09:53:30;5.70;99.90
11532;DHT22;5822;51.000;5.874;2023-02-28T09:56:36;5.70;99.90
11532;DHT22;5822;51.000;5.874;2023-02-28T10:09:59;5.90;99.90
11532;DHT22;5822;51.000;5.874;2023-02-28T10:12:28;6.10;99.90
11532;DHT22;5822;51.000;5.874;2023-02-28T10:14:55;6.20;99.90
11532;DHT22;5822;51.000;5.874;2023-02-28T10:17:37;6.10;99.90
11532;DHT22;5822;51.000;5.874;2023-02-28T10:20:12;6.20;99.90
11532;DHT22;5822;51.000;5.874;2023-02-28T10:25:22;6.20;99.90
11532;DHT22;5822;51.000;5.874;2023-02-28T10:27:49;6.20;99.90
11532;DHT22;5822;51.000;5.874;2023-02-28T10:30:18;6.40;99.90
11532;DHT22;5822;51.000;5.874;2023-02-28T10:32:51;6.50;99.90
11532;DHT22;5822;51.000;5.874;2023-02-28T10:35:26;6.90;99.90
11532;DHT22;5822;51.000;5.874;2023-02-28T10:37:57;7.00;99.90
11532;DHT22;5822;51.000;5.874;2023-02-28T10:40:43;7.00;99.90
11532;DHT22;5822;51.000;5.874;2023-02-28T10:45:38;7.00;99.90
11532;DHT22;5822;51.000;5.874;2023-02-28T10:48:05;7.00;99.90
11532;DHT22;5822;51.000;5.874;2023-02-28T10:50:43;6.90;99.90
11532;DHT22;5822;51.000;5.874;2023-02-28T10:53:32;7.00;99.90
11532;DHT22;5822;51.000;5.874;2023-02-28T10:56:00;7.10;99.90
11532;DHT22;5822;51.000;5.874;2023-02-28T10:58:56;7.30;99.90
11532;DHT22;5822;51.000;5.874;2023-02-28T11:03:50;7.30;99.90
11532;DHT22;5822;51.000;5.874;2023-02-28T11:08:53;7.20;99.90
11532;DHT22;5822;51.000;5.874;2023-02-28T11:11:20;7.40;99.90
11532;DHT22;5822;51.000;5.874;2023-02-28T11:13:51;7.30;99.90
11532;DHT22;5822;51.000;5.874;2023-02-28T11:16:18;7.20;99.90
11532;DHT22;5822;51.000;5.874;2023-02-28T11:18:53;7.30;99.90
11532;DHT22;5822;51.000;5.874;2023-02-28T11:21:26;7.30;99.90
11532;DHT22;5822;51.000;5.874;2023-02-28T11:24:06;7.30;99.90
11532;DHT22;5822;51.000;5.874;2023-02-28T11:26:46;7.60;99.90
11532;DHT22;5822;51.000;5.874;2023-02-28T11:29:29;7.60;99.90
11532;DHT22;5822;51.000;5.874;2023-02-28T11:32:12;7.60;99.90
11532;DHT22;5822;51.000;5.874;2023-02-28T11:34:39;7.60;99.90
11532;DHT22;5822;51.000;5.874;2023-02-28T11:37:14;7.60;99.90
11532;DHT22;5822;51.000;5.874;2023-02-28T11:39:41;7.60;99.90
11532;DHT22;5822;51.000;5.874;2023-02-28T11:56:05;7.70;99.90
11532;DHT22;5822;51.000;5.874;2023-02-28T11:59:33;7.60;99.90
11532;DHT22;5822;51.000;5.874;2023-02-28T12:04:23;7.40;99.90
11532;DHT22;5822;51.000;5.874;2023-02-28T12:09:43;7.30;99.90
11532;DHT22;5822;51.000;5.874;2023-02-28T12:18:59;7.30;99.90
11532;DHT22;5822;51.000;5.874;2023-02-28T12:26:28;7.40;99.90
11532;DHT22;5822;51.000;5.874;2023-02-28T12:31:40;7.60;99.90
11532;DHT22;5822;51.000;5.874;2023-02-28T12:34:11;7.50;99.90
11532;DHT22;5822;51.000;5.874;2023-02-28T12:36:37;7.50;99.90
11532;DHT22;5822;51.000;5.874;2023-02-28T12:41:48;7.70;99.90
11532;DHT22;5822;51.000;5.874;2023-02-28T12:44:44;7.70;99.90
11532;DHT22;5822;51.000;5.874;2023-02-28T12:47:15;7.70;99.90
11532;DHT22;5822;51.000;5.874;2023-02-28T12:49:56;7.80;99.90
11532;DHT22;5822;51.000;5.874;2023-02-28T12:55:21;7.80;99.90
11532;DHT22;5822;51.000;5.874;2023-02-28T13:00:32;7.80;99.90
11532;DHT22;5822;51.000;5.874;2023-02-28T13:06:05;7.70;99.90
11532;DHT22;5822;51.000;5.874;2023-02-28T13:11:24;7.80;99.90
11532;DHT22;5822;51.000;5.874;2023-02-28T13:13:58;7.90;99.90
11532;DHT22;5822;51.000;5.874;2023-02-28T13:16:24;7.90;99.90
11532;DHT22;5822;51.000;5.874;2023-02-28T13:18:50;8.10;99.90
11532;DHT22;5822;51.000;5.874;2023-02-28T13:21:29;8.30;99.90
11532;DHT22;5822;51.000;5.874;2023-02-28T13:23:59;8.30;99.90
11532;DHT22;5822;51.000;5.874;2023-02-28T13:39:51;8.00;99.90
11532;DHT22;5822;51.000;5.874;2023-02-28T13:47:53;8.10;99.90
11532;DHT22;5822;51.000;5.874;2023-02-28T13:58:54;7.80;99.90
11532;DHT22;5822;51.000;5.874;2023-02-28T14:06:55;8.10;99.90
11532;DHT22;5822;51.000;5.874;2023-02-28T14:09:40;8.20;99.90
11532;DHT22;5822;51.000;5.874;2023-02-28T14:15:39;8.50;99.90
11532;DHT22;5822;51.000;5.874;2023-02-28T14:18:36;8.60;99.90
11532;DHT22;5822;51.000;5.874;2023-02-28T14:21:23;8.70;99.90
11532;DHT22;5822;51.000;5.874;2023-02-28T14:27:32;9.00;99.90
11532;DHT22;5822;51.000;5.874;2023-02-28T14:36:04;9.10;99.90
11532;DHT22;5822;51.000;5.874;2023-02-28T14:41:24;9.10;99.90
11532;DHT22;5822;51.000;5.874;2023-02-28T14:43:59;9.10;99.90
11532;DHT22;5822;51.000;5.874;2023-02-28T14:46:35;9.20;99.90
11532;DHT22;5822;51.000;5.874;2023-02-28T14:49:07;9.20;99.90
11532;DHT22;5822;51.000;5.874;2023-02-28T14:51:37;9.30;99.90
11532;DHT22;5822;51.000;5.874;2023-02-28T14:54:03;9.30;99.90
11532;DHT22;5822;51.000;5.874;2023-02-28T14:56:38;9.30;99.90
11532;DHT22;5822;51.000;5.874;2023-02-28T14:59:05;9.40;99.90
11532;DHT22;5822;51.000;5.874;2023-02-28T15:01:31;9.40;99.90
11532;DHT22;5822;51.000;5.874;2023-02-28T15:04:04;9.40;99.90
11532;DHT22;5822;51.000;5.874;2023-02-28T15:06:30;9.40;99.90
11532;DHT22;5822;51.000;5.874;2023-02-28T15:09:14;9.40;99.90
11532;DHT22;5822;51.000;5.874;2023-02-28T15:11:41;9.50;99.90
11532;DHT22;5822;51.000;5.874;2023-02-28T15:14:12;9.50;99.90
11532;DHT22;5822;51.000;5.874;2023-02-28T15:16:41;9.50;99.90
11532;DHT22;5822;51.000;5.874;2023-02-28T15:19:24;9.60;99.90
11532;DHT22;5822;51.000;5.874;2023-02-28T15:22:26;9.60;99.90
11532;DHT22;5822;51.000;5.874;2023-02-28T15:24:54;9.60;99.90
11532;DHT22;5822;51.000;5.874;2023-02-28T15:27:26;9.60;99.90
11532;DHT22;5822;51.000;5.874;2023-02-28T15:32:44;9.40;99.90
11532;DHT22;5822;51.000;5.874;2023-02-28T15:40:46;9.30;99.90
11532;DHT22;5822;51.000;5.874;2023-02-28T15:43:30;9.20;99.90
11532;DHT22;5822;51.000;5.874;2023-02-28T15:46:20;9.10;99.90
11532;DHT22;5822;51.000;5.874;2023-02-28T15:49:03;9.10;99.90
11532;DHT22;5822;51.000;5.874;2023-02-28T15:51:36;9.00;99.90
11532;DHT22;5822;51.000;5.874;2023-02-28T15:54:06;9.00;99.90
11532;DHT22;5822;51.000;5.874;2023-02-28T15:56:38;8.90;99.90
11532;DHT22;5822;51.000;5.874;2023-02-28T15:59:15;8.90;99.90
11532;DHT22;5822;51.000;5.874;2023-02-28T16:01:42;8.90;99.90
11532;DHT22;5822;51.000;5.874;2023-02-28T16:04:18;8.90;99.90
11532;DHT22;5822;51.000;5.874;2023-02-28T16:09:22;8.70;99.90
11532;DHT22;5822;51.000;5.874;2023-02-28T16:11:50;8.70;99.90
11532;DHT22;5822;51.000;5.874;2023-02-28T16:14:22;8.60;99.90
11532;DHT22;5822;51.000;5.874;2023-02-28T16:16:53;8.60;99.90
11532;DHT22;5822;51.000;5.874;2023-02-28T16:19:20;8.50;99.90
11532;DHT22;5822;51.000;5.874;2023-02-28T16:21:46;8.50;99.90
11532;DHT22;5822;51.000;5.874;2023-02-28T16:24:12;8.40;99.90
11532;DHT22;5822;51.000;5.874;2023-02-28T16:26:40;8.40;99.90
11532;DHT22;5822;51.000;5.874;2023-02-28T16:29:06;8.40;99.90
11532;DHT22;5822;51.000;5.874;2023-02-28T16:31:37;8.40;99.90
11532;DHT22;5822;51.000;5.874;2023-02-28T16:34:03;8.40;99.90
11532;DHT22;5822;51.000;5.874;2023-02-28T16:36:29;8.30;99.90
11532;DHT22;5822;51.000;5.874;2023-02-28T16:38:55;8.30;99.90
11532;DHT22;5822;51.000;5.874;2023-02-28T16:41:24;8.30;99.90
11532;DHT22;5822;51.000;5.874;2023-02-28T16:43:53;8.30;99.90
11532;DHT22;5822;51.000;5.874;2023-02-28T16:46:20;8.20;99.90
11532;DHT22;5822;51.000;5.874;2023-02-28T16:48:47;8.20;99.90
11532;DHT22;5822;51.000;5.874;2023-02-28T16:51:17;8.20;99.90
11532;DHT22;5822;51.000;5.874;2023-02-28T16:53:43;8.10;99.90
11532;DHT22;5822;51.000;5.874;2023-02-28T16:56:22;8.10;99.90
11532;DHT22;5822;51.000;5.874;2023-02-28T16:58:49;8.00;99.90
11532;DHT22;5822;51.000;5.874;2023-02-28T17:01:16;8.00;99.90
11532;DHT22;5822;51.000;5.874;2023-02-28T17:03:42;8.10;99.90
11532;DHT22;5822;51.000;5.874;2023-02-28T17:06:20;8.10;99.90
11532;DHT22;5822;51.000;5.874;2023-02-28T17:08:48;8.00;99.90
11532;DHT22;5822;51.000;5.874;2023-02-28T17:11:14;8.10;99.90
11532;DHT22;5822;51.000;5.874;2023-02-28T17:13:40;8.00;99.90
11532;DHT22;5822;51.000;5.874;2023-02-28T17:16:08;8.00;99.90
11532;DHT22;5822;51.000;5.874;2023-02-28T17:18:36;8.00;99.90
11532;DHT22;5822;51.000;5.874;2023-02-28T17:21:01;8.00;99.90
11532;DHT22;5822;51.000;5.874;2023-02-28T17:23:27;7.90;99.90
11532;DHT22;5822;51.000;5.874;2023-02-28T17:25:53;7.80;99.90
11532;DHT22;5822;51.000;5.874;2023-02-28T17:28:20;7.70;99.90
11532;DHT22;5822;51.000;5.874;2023-02-28T17:30:47;7.80;99.90
11532;DHT22;5822;51.000;5.874;2023-02-28T17:33:14;7.80;99.90
11532;DHT22;5822;51.000;5.874;2023-02-28T17:35:40;7.80;99.90
11532;DHT22;5822;51.000;5.874;2023-02-28T17:38:15;7.80;99.90
11532;DHT22;5822;51.000;5.874;2023-02-28T17:40:41;7.70;99.90
11532;DHT22;5822;51.000;5.874;2023-02-28T17:43:06;7.70;99.90
11532;DHT22;5822;51.000;5.874;2023-02-28T17:45:32;7.60;99.90
11532;DHT22;5822;51.000;5.874;2023-02-28T17:48:00;7.60;99.90
11532;DHT22;5822;51.000;5.874;2023-02-28T17:50:26;7.60;99.90
11532;DHT22;5822;51.000;5.874;2023-02-28T17:52:52;7.60;99.90
11532;DHT22;5822;51.000;5.874;2023-02-28T17:55:18;7.60;99.90
11532;DHT22;5822;51.000;5.874;2023-02-28T17:57:44;7.50;99.90
11532;DHT22;5822;51.000;5.874;2023-02-28T18:00:16;7.50;99.90
11532;DHT22;5822;51.000;5.874;2023-02-28T18:02:43;7.50;99.90
11532;DHT22;5822;51.000;5.874;2023-02-28T18:05:09;7.40;99.90
11532;DHT22;5822;51.000;5.874;2023-02-28T18:07:38;7.30;99.90
11532;DHT22;5822;51.000;5.874;2023-02-28T18:10:06;7.30;99.90
11532;DHT22;5822;51.000;5.874;2023-02-28T18:12:32;7.30;99.90
11532;DHT22;5822;51.000;5.874;2023-02-28T18:14:58;7.30;99.90
11532;DHT22;5822;51.000;5.874;2023-02-28T18:17:24;7.30;99.90
11532;DHT22;5822;51.000;5.874;2023-02-28T18:19:49;7.20;99.90
11532;DHT22;5822;51.000;5.874;2023-02-28T18:22:15;7.20;99.90
11532;DHT22;5822;51.000;5.874;2023-02-28T18:24:41;7.20;99.90
11532;DHT22;5822;51.000;5.874;2023-02-28T18:27:07;7.20;99.90
11532;DHT22;5822;51.000;5.874;2023-02-28T18:29:33;7.10;99.90
11532;DHT22;5822;51.000;5.874;2023-02-28T18:31:59;7.10;99.90
11532;DHT22;5822;51.000;5.874;2023-02-28T18:34:26;7.10;99.90
11532;DHT22;5822;51.000;5.874;2023-02-28T18:36:53;7.10;99.90
11532;DHT22;5822;51.000;5.874;2023-02-28T18:39:18;7.10;99.90
11532;DHT22;5822;51.000;5.874;2023-02-28T18:41:44;7.00;99.90
11532;DHT22;5822;51.000;5.874;2023-02-28T18:44:10;7.00;99.90
11532;DHT22;5822;51.000;5.874;2023-02-28T18:46:36;7.00;99.90
11532;DHT22;5822;51.000;5.874;2023-02-28T18:49:02;7.00;99.90
11532;DHT22;5822;51.000;5.874;2023-02-28T18:51:28;7.00;99.90
11532;DHT22;5822;51.000;5.874;2023-02-28T18:53:54;6.90;99.90
11532;DHT22;5822;51.000;5.874;2023-02-28T18:56:22;6.90;99.90
11532;DHT22;5822;51.000;5.874;2023-02-28T18:58:48;6.90;99.90